Aeroporto :
LOGIN :

Iscrizione | Disclaimer

   EN    FR    IT 

 










Sommario :    VFR   VFR Marginale   IFR   IFR Intensivo   IFR Molto Intensivo
Visibilità : 
Base nubi : 
>= 8 km
>= 3000ft
5 / 8 km
1000 / 3000 ft
1500m / 5 km
500 / 1000 ft
800 / 1500m
200 / 500 ft
< 800m
< 200 ft
Simboli :   Temporali  Nebbia  Neve Forte  Precipitazioni Forti  Vento > 20 kt
SIGMETs :   Varie  Temporali  Ghiacco  Turbolenza  Onda orograficha  Ceneri Vulcaniche







- Altitudine del aeroporto : 779 ft
- Codice IATA : CMF
- Carte del aeroporto


LFLB - Chambery / Aix-Les-Bains

ULTIMO METAR :
  • 171930Z AUTO 17007KT 9999 FEW058 BKN070 OVC120 03/02 Q1016 TEMPO 4000 SHRA BKN014

METARs OBSOLETI :
  • 171900Z AUTO 17006KT 130V210 9999 FEW023/// BKN070/// OVC092/// ///TCU 04/02 Q1016 TEMPO 4000 SHRA BKN014
  • 171830Z AUTO 07005KT 030V130 9999 FEW016 SCT028 BKN037 04/02 Q1016 TEMPO 4000 SHRA BKN014
  • 171800Z AUTO 32005KT 280V020 9999 -RA FEW017/// SCT033/// BKN046/// ///TCU 05/03 Q1016 TEMPO 4000 SHRA BKN014
  • 171730Z AUTO 19004KT 170V230 9999 BKN047/// BKN054/// OVC072/// ///CB 05/03 Q1015 TEMPO 4000 SHRA BKN014
  • 171700Z AUTO 21006KT 9999 FEW049/// BKN066/// OVC076/// ///TCU 05/03 Q1015 TEMPO 4000 SHRA

TAF TAF LFLB
Valido dal 17 a 18 ore il 18 a 18 ore UTC


171700Z 1718/1818 18005KT 9999 BKN040
TEMPO 1718/1803 4000 SHRA BKN014
BECMG 1804/1806 36005KT BKN014
BECMG 1810/1812 36010KT BKN033
Nessun NOTAM noto per questo aeroporto.



MetMap, La meteo Aeronautica in un colpo d'occhio ! - Copyright ORBIFLY Dicembre 2007 - Disclaimer

ORBIFLY MET'MAP TEAM :

Programmazione e sviluppo : Alexandra Zaïnal
Concezione e sviluppo : Baudouin d'Aumeries
Co-Programmazione e sviluppo : Marc-Olivier Méhu
Supporto tecnico e logistico : Manuel Goepfert
Aiuto per la traduzione : Arnaldo La Scala

Contatto : metmap@orbifly.com




FONTI E CREDITI :

   NOAA